AWE623 KBOS-KJFK
Flight info
| Callsign | AWE623 |
|---|---|
| Flight time | N/A |
| Altitude | 20000 |
| Route | SSOXS7 SSOXS BUZRD SEY PARCH4 |
| Aircraft | A320/M-SDE3FGHIRWY/LB1 |
Departure
| Time | 2026-05-06 23:44 |
|---|---|
| Airport | Boston Logan International Airport (KBOS) |
Arrival
| Time | N/A |
|---|---|
| Airport | John F. Kennedy International Airport (KJFK) |
| Time | Latitude | Longitude | Altitude | Speed | Heading |
|---|---|---|---|---|---|
| 2026-05-06 23:09 | 42.36018 | -71.01869 | 30 ft | 0 kts | 31° |
| 2026-05-06 23:33 | 42.36017 | -71.01869 | 25 ft | 2 kts | 31° |
| 2026-05-06 23:33 | 42.35998 | -71.01890 | 30 ft | 4 kts | 54° |
| 2026-05-06 23:34 | 42.35987 | -71.01922 | 31 ft | 4 kts | 83° |
| 2026-05-06 23:34 | 42.35987 | -71.01957 | 30 ft | 4 kts | 103° |
| 2026-05-06 23:34 | 42.35996 | -71.01992 | 31 ft | 4 kts | 117° |
| 2026-05-06 23:34 | 42.36002 | -71.02007 | 31 ft | 0 kts | 121° |
| 2026-05-06 23:38 | 42.35999 | -71.02002 | 25 ft | 4 kts | 121° |
| 2026-05-06 23:38 | 42.35959 | -71.01910 | 25 ft | 19 kts | 121° |
| 2026-05-06 23:39 | 42.35907 | -71.01732 | 27 ft | 22 kts | 101° |
| 2026-05-06 23:39 | 42.35914 | -71.01540 | 26 ft | 21 kts | 37° |
| 2026-05-06 23:39 | 42.36055 | -71.01470 | 27 ft | 24 kts | 20° |
| 2026-05-06 23:39 | 42.36230 | -71.01386 | 27 ft | 30 kts | 19° |
| 2026-05-06 23:40 | 42.36439 | -71.01284 | 27 ft | 31 kts | 20° |
| 2026-05-06 23:40 | 42.36622 | -71.01195 | 25 ft | 26 kts | 21° |
| 2026-05-06 23:40 | 42.36792 | -71.01158 | 25 ft | 24 kts | 332° |
| 2026-05-06 23:40 | 42.36926 | -71.01182 | 27 ft | 23 kts | 45° |
| 2026-05-06 23:41 | 42.37059 | -71.01064 | 28 ft | 24 kts | 25° |
| 2026-05-06 23:41 | 42.37217 | -71.00961 | 27 ft | 26 kts | 26° |
| 2026-05-06 23:41 | 42.37366 | -71.00876 | 25 ft | 24 kts | 20° |
| 2026-05-06 23:41 | 42.37531 | -71.00795 | 28 ft | 26 kts | 20° |
| 2026-05-06 23:42 | 42.37703 | -71.00713 | 30 ft | 27 kts | 20° |
| 2026-05-06 23:42 | 42.37834 | -71.00612 | 25 ft | 19 kts | 78° |
| 2026-05-06 23:42 | 42.37775 | -71.00485 | 29 ft | 14 kts | 186° |
| 2026-05-06 23:42 | 42.37693 | -71.00522 | 26 ft | 11 kts | 200° |
| 2026-05-06 23:43 | 42.37690 | -71.00523 | 26 ft | 0 kts | 200° |
| 2026-05-06 23:43 | 42.37681 | -71.00527 | 27 ft | 6 kts | 200° |
| 2026-05-06 23:43 | 42.37421 | -71.00653 | 28 ft | 72 kts | 200° |
| 2026-05-06 23:44 | 42.36785 | -71.00957 | 27 ft | 118 kts | 200° |
| 2026-05-06 23:44 | 42.35938 | -71.01369 | 315 ft | 131 kts | 199° |
| 2026-05-06 23:44 | 42.35047 | -71.01657 | 748 ft | 142 kts | 189° |
| 2026-05-06 23:44 | 42.33853 | -71.01433 | 609 ft | 207 kts | 159° |
| 2026-05-06 23:45 | 42.32697 | -71.00253 | 1734 ft | 213 kts | 135° |
| 2026-05-06 23:45 | 42.31762 | -70.98548 | 2538 ft | 241 kts | 133° |
| 2026-05-06 23:45 | 42.30678 | -70.96551 | 2863 ft | 287 kts | 132° |
| 2026-05-06 23:45 | 42.29406 | -70.94210 | 2976 ft | 331 kts | 131° |
| 2026-05-06 23:46 | 42.28020 | -70.91517 | 3008 ft | 367 kts | 124° |
| 2026-05-06 23:46 | 42.27024 | -70.88203 | 2693 ft | 411 kts | 106° |
| 2026-05-06 23:46 | 42.26407 | -70.84480 | 3801 ft | 397 kts | 106° |
| 2026-05-06 23:46 | 42.25826 | -70.80917 | 5240 ft | 380 kts | 105° |
| 2026-05-06 23:47 | 42.24969 | -70.77682 | 6654 ft | 355 kts | 127° |
| 2026-05-06 23:47 | 42.23326 | -70.75373 | 7886 ft | 338 kts | 152° |
| 2026-05-06 23:47 | 42.21192 | -70.74007 | 8503 ft | 346 kts | 169° |
| 2026-05-06 23:47 | 42.18779 | -70.73332 | 8802 ft | 364 kts | 180° |
| 2026-05-06 23:48 | 42.16182 | -70.73280 | 8977 ft | 386 kts | 187° |
| 2026-05-06 23:48 | 42.13444 | -70.73372 | 9693 ft | 395 kts | 187° |